Time;durP1;ratioP1;P1;durP2;ratioP2;P2;SDS_P1;SDS_P2;PMS_P1;PMS_P2;Temp;Humidity;BMP_temperature;BMP_pressure;BME280_temperature;BME280_humidity;BME280_pressure;Samples;Min_cycle;Max_cycle;Signal;HPM_P1;HPM_P2
2023/05/01 00:02:22;;;;;;;8.20;3.90;;;;;;;-148.88;88.03;76628.41;5014838;28;20100;-77
2023/05/01 00:04:47;;;;;;;8.27;4.30;;;;;;;-148.88;87.28;76640.59;4996786;28;20026;-76
2023/05/01 00:07:12;;;;;;;10.10;4.32;;;;;;;-148.88;87.44;76642.63;5014337;28;20061;-77
2023/05/01 00:09:38;;;;;;;10.00;6.55;;;;;;;-148.88;87.72;76642.63;5014296;28;20072;-77
2023/05/01 00:12:03;;;;;;;11.57;6.75;;;;;;;-148.88;87.86;76638.56;5014181;28;20018;-77
2023/05/01 00:14:29;;;;;;;8.60;4.43;;;;;;;-148.88;88.33;76638.56;5014105;28;20075;-76
2023/05/01 00:16:54;;;;;;;9.10;4.28;;;;;;;-148.88;87.35;76642.63;5014414;28;20481;-77
2023/05/01 00:19:20;;;;;;;8.20;3.63;;;;;;;-148.88;87.34;76644.66;5014151;28;20021;-77
2023/05/01 00:21:47;;;;;;;10.05;6.20;;;;;;;-148.88;87.40;76646.69;5013946;28;20543;-77
2023/05/01 00:24:13;;;;;;;11.65;6.60;;;;;;;-148.88;87.45;76654.81;4996282;28;20052;-77
2023/05/01 00:26:38;;;;;;;9.35;3.65;;;;;;;-148.88;86.91;76664.97;4996356;28;20548;-77
2023/05/01 00:29:03;;;;;;;9.05;3.60;;;;;;;-148.88;87.04;76664.97;5014462;28;20034;-76
2023/05/01 00:31:28;;;;;;;10.68;6.25;;;;;;;-148.88;88.27;76669.03;5013713;28;20105;-77
2023/05/01 00:33:54;;;;;;;12.07;5.95;;;;;;;-148.88;87.77;76679.19;5014147;28;20037;-76
2023/05/01 00:36:20;;;;;;;6.82;3.72;;;;;;;-148.88;86.79;76681.22;5014071;28;20496;-76
2023/05/01 00:38:45;;;;;;;9.63;4.90;;;;;;;-148.88;87.01;76673.09;5013735;28;20033;-77
2023/05/01 00:41:10;;;;;;;11.35;5.70;;;;;;;-148.88;87.25;76673.09;5013617;28;20022;-77
2023/05/01 00:43:36;;;;;;;7.45;3.28;;;;;;;-148.88;87.41;76673.09;5013657;28;20477;-77
2023/05/01 00:46:02;;;;;;;10.13;5.70;;;;;;;-148.88;85.31;76675.13;4995872;28;20033;-77
2023/05/01 00:48:27;;;;;;;9.18;3.58;;;;;;;-148.88;84.48;76675.13;4996418;28;20029;-76
2023/05/01 00:50:54;;;;;;;8.02;4.93;;;;;;;-148.88;83.40;76656.84;5013536;28;20473;-77
2023/05/01 00:53:20;;;;;;;9.15;4.80;;;;;;;-148.88;80.97;76658.88;4995871;28;20036;-76
2023/05/01 00:55:46;;;;;;;9.95;4.78;;;;;;;-148.88;80.23;76658.88;5013415;28;20048;-77
2023/05/01 00:58:14;;;;;;;7.88;3.47;;;;;;;-148.88;79.90;76658.88;5013507;28;20496;-77
2023/05/01 01:00:40;;;;;;;10.13;2.95;;;;;;;-148.88;79.94;76654.81;5013624;28;20026;-77
2023/05/01 01:03:05;;;;;;;8.82;3.30;;;;;;;-148.88;79.03;76654.81;4995754;28;20033;-76
2023/05/01 01:05:39;;;;;;;10.07;3.10;;;;;;;-148.88;79.53;76646.69;5013397;28;20032;-77
2023/05/01 01:08:14;;;;;;;7.70;4.93;;;;;;;-148.88;79.02;76650.75;5013632;28;20388;-77
2023/05/01 01:10:50;;;;;;;9.10;3.00;;;;;;;-148.88;79.31;76642.63;5013641;28;20026;-76
2023/05/01 01:13:38;;;;;;;6.20;2.78;;;;;;;-148.88;79.15;76646.69;4995517;28;20026;-76
2023/05/01 01:16:40;;;;;;;9.70;4.50;;;;;;;-148.88;78.79;76646.69;4995501;28;20484;-77
2023/05/01 01:19:19;;;;;;;7.43;3.25;;;;;;;-148.88;78.66;76642.63;5013503;28;20547;-76
2023/05/01 01:21:48;;;;;;;7.90;2.65;;;;;;;-148.88;78.89;76646.69;5013160;28;20084;-76
2023/05/01 01:24:35;;;;;;;9.88;4.70;;;;;;;-148.88;79.13;76634.50;4995334;28;20048;-77
2023/05/01 01:27:25;;;;;;;8.63;3.67;;;;;;;-148.88;79.65;76646.69;5012986;28;20025;-76
2023/05/01 01:30:18;;;;;;;9.65;4.13;;;;;;;-148.88;82.00;76646.69;5013394;28;20095;-77
2023/05/01 01:33:02;;;;;;;9.68;4.60;;;;;;;-148.88;85.00;76652.78;5012965;28;20022;-76
2023/05/01 01:35:30;;;;;;;8.00;4.35;;;;;;;-148.88;86.70;76662.94;4995456;28;20029;-76
2023/05/01 01:38:22;;;;;;;8.60;4.85;;;;;;;-148.88;87.12;76671.06;4995394;28;20029;-76
2023/05/01 01:41:00;;;;;;;9.68;4.53;;;;;;;-148.88;89.86;76687.31;5012817;28;20017;-77
2023/05/01 01:43:31;;;;;;;11.05;5.18;;;;;;;-148.88;90.16;76683.25;4997733;28;20044;-76
2023/05/01 01:46:02;;;;;;;10.98;5.32;;;;;;;-148.88;92.19;76699.50;5016716;28;20033;-77
2023/05/01 01:48:33;;;;;;;12.25;7.30;;;;;;;-148.88;92.49;76695.44;5016245;28;20025;-76
2023/05/01 01:51:00;;;;;;;12.75;5.05;;;;;;;-148.88;93.01;76707.63;5015547;28;20141;-76
2023/05/01 01:53:28;;;;;;;10.55;4.70;;;;;;;-148.88;93.26;76707.63;4997928;28;20026;-77
2023/05/01 01:55:55;;;;;;;11.90;4.90;;;;;;;-148.88;93.03;76711.69;5015355;28;20021;-77
2023/05/01 01:58:25;;;;;;;13.90;7.40;;;;;;;-148.88;92.80;76719.81;4997889;28;20022;-76
2023/05/01 02:00:52;;;;;;;7.78;4.70;;;;;;;-148.88;94.56;76723.88;4997704;28;20014;-76
2023/05/01 02:03:19;;;;;;;11.48;7.47;;;;;;;-148.88;94.90;76729.97;5015354;28;20048;-77
2023/05/01 02:05:47;;;;;;;6.63;4.28;;;;;;;-148.88;95.16;76727.94;5015155;28;20084;-76
2023/05/01 02:08:15;;;;;;;8.30;4.40;;;;;;;-148.88;95.71;76736.06;4997573;28;20033;-76
2023/05/01 02:10:42;;;;;;;10.80;6.97;;;;;;;-148.88;95.79;76729.97;5015427;28;20022;-77
2023/05/01 02:13:09;;;;;;;12.15;4.40;;;;;;;-148.88;95.79;76736.06;5015129;28;20036;-76
2023/05/01 02:15:37;;;;;;;11.80;3.90;;;;;;;-148.88;96.06;76732.00;5015044;28;20109;-76
2023/05/01 02:18:04;;;;;;;10.23;4.25;;;;;;;-148.88;95.39;76736.06;5015102;28;20025;-76
2023/05/01 02:20:29;;;;;;;9.63;4.35;;;;;;;-148.88;94.96;76736.06;5015450;28;20025;-76
2023/05/01 02:22:57;;;;;;;11.05;4.30;;;;;;;-148.88;95.49;76736.06;5015129;28;20025;-76
2023/05/01 02:25:23;;;;;;;10.73;4.05;;;;;;;-148.88;96.18;76742.16;4997222;28;20111;-77
2023/05/01 02:27:54;;;;;;;8.52;4.28;;;;;;;-148.88;95.58;76740.13;5014872;28;20029;-76
2023/05/01 02:30:20;;;;;;;10.40;4.63;;;;;;;-148.88;95.28;76738.09;5015229;28;20499;-76
2023/05/01 02:32:45;;;;;;;7.35;4.15;;;;;;;-148.88;94.19;76734.03;5014890;28;20022;-76
2023/05/01 02:35:10;;;;;;;8.57;5.72;;;;;;;-148.88;93.20;76725.91;5014841;28;20038;-77
2023/05/01 02:37:37;;;;;;;7.75;3.33;;;;;;;-148.88;92.08;76719.81;5014860;28;20053;-76
2023/05/01 02:40:03;;;;;;;7.75;3.55;;;;;;;-148.88;91.39;76709.66;5014818;28;20481;-77
2023/05/01 02:42:31;;;;;;;7.38;3.30;;;;;;;-148.88;91.70;76707.63;4997009;28;20022;-77
2023/05/01 02:44:59;;;;;;;7.18;3.95;;;;;;;-148.88;91.87;76711.69;4997029;28;20034;-76
2023/05/01 02:47:26;;;;;;;11.93;4.13;;;;;;;-148.88;92.20;76715.75;4983416;22;1218018;-86
2023/05/01 02:49:53;;;;;;;7.25;3.45;;;;;;;-148.88;92.68;76717.78;4999843;28;20025;-86
2023/05/01 02:52:19;;;;;;;10.85;3.35;;;;;;;-148.88;92.68;76711.69;5000619;28;20477;-87
2023/05/01 02:54:45;;;;;;;8.30;3.75;;;;;;;-148.88;92.95;76725.91;5017751;28;20396;-87
2023/05/01 02:57:11;;;;;;;7.43;3.42;;;;;;;-148.88;92.58;76719.81;4999805;28;20022;-87
2023/05/01 02:59:37;;;;;;;8.02;3.95;;;;;;;-148.88;93.58;76727.94;5000216;28;20179;-87
2023/05/01 03:02:02;;;;;;;8.77;3.97;;;;;;;-148.88;93.49;76729.97;4999794;28;20495;-86
2023/05/01 03:04:28;;;;;;;7.07;4.00;;;;;;;-148.88;94.46;76740.13;5019048;28;20059;-86
2023/05/01 03:06:53;;;;;;;7.80;3.70;;;;;;;-148.88;94.98;76744.19;5000171;28;20018;-85
2023/05/01 03:09:19;;;;;;;7.93;3.58;;;;;;;-148.88;94.86;76740.13;5017090;28;20041;-86
2023/05/01 03:11:45;;;;;;;8.93;5.70;;;;;;;-148.88;94.83;76740.13;4999367;28;20022;-86
2023/05/01 03:14:11;;;;;;;10.02;3.92;;;;;;;-148.88;94.82;76748.25;5017266;28;20022;-86
2023/05/01 03:16:36;;;;;;;8.43;3.80;;;;;;;-148.88;95.20;76750.28;5000111;28;20029;-87
2023/05/01 03:19:01;;;;;;;8.00;3.58;;;;;;;-148.88;96.65;76756.41;4999221;28;20136;-86
2023/05/01 03:21:26;;;;;;;7.78;3.42;;;;;;;-148.88;95.72;76744.19;4999139;28;20026;-86
2023/05/01 03:23:52;;;;;;;13.35;3.83;;;;;;;-148.88;95.69;76744.19;4999780;28;20396;-86
2023/05/01 03:26:17;;;;;;;9.48;3.80;;;;;;;-148.88;95.26;76744.19;5000072;28;20057;-86
2023/05/01 03:28:42;;;;;;;7.30;3.83;;;;;;;-148.88;95.57;76740.13;5016833;28;20029;-87
2023/05/01 03:31:08;;;;;;;7.68;3.22;;;;;;;-148.88;95.02;76740.13;4999464;28;20018;-86
2023/05/01 03:33:33;;;;;;;7.50;3.28;;;;;;;-148.88;95.03;76744.19;4999132;28;20048;-87
2023/05/01 03:36:00;;;;;;;7.97;3.35;;;;;;;-148.88;95.32;76744.19;4999168;28;20124;-86
2023/05/01 03:38:27;;;;;;;10.63;3.90;;;;;;;-148.88;95.45;76744.19;4998985;28;20029;-86
2023/05/01 03:40:52;;;;;;;8.00;3.78;;;;;;;-148.88;95.28;76748.25;4998924;28;20018;-86
2023/05/01 03:43:17;;;;;;;8.70;3.30;;;;;;;-148.88;95.10;76748.25;4999317;28;20088;-86
2023/05/01 03:45:43;;;;;;;9.63;5.55;;;;;;;-148.88;95.21;76748.25;4999283;28;20068;-87
2023/05/01 03:48:08;;;;;;;6.88;2.95;;;;;;;-148.88;95.74;76752.31;4998732;28;20018;-86
2023/05/01 03:50:33;;;;;;;13.43;3.42;;;;;;;-148.88;96.66;76764.53;4998671;28;20053;-86
2023/05/01 03:52:58;;;;;;;8.73;3.88;;;;;;;-148.88;96.54;76762.50;5016882;28;20028;-86
2023/05/01 03:55:24;;;;;;;8.00;2.97;;;;;;;-148.88;96.80;76764.53;4998696;28;20037;-85
2023/05/01 03:57:49;;;;;;;6.50;3.03;;;;;;;-148.88;97.28;76774.69;5016272;28;20448;-87
2023/05/01 04:00:15;;;;;;;9.65;3.38;;;;;;;-148.88;97.25;76764.53;4998662;28;20029;-87
2023/05/01 04:02:40;;;;;;;10.40;3.67;;;;;;;-148.88;97.29;76760.44;4999126;28;20031;-86
2023/05/01 04:05:06;;;;;;;10.65;3.60;;;;;;;-148.88;97.41;76760.44;4997988;28;20395;-87
2023/05/01 04:07:31;;;;;;;6.22;3.25;;;;;;;-148.88;97.08;76762.50;5000200;28;20030;-86
2023/05/01 04:09:57;;;;;;;6.57;3.10;;;;;;;-148.88;97.51;76760.44;5000874;28;20088;-86
2023/05/01 04:12:25;;;;;;;7.15;3.60;;;;;;;-148.88;97.32;76760.44;5015744;28;20523;-86
2023/05/01 04:14:54;;;;;;;10.45;2.92;;;;;;;-148.88;97.91;76764.53;4999007;28;20400;-87
2023/05/01 04:17:25;;;;;;;6.78;3.30;;;;;;;-148.88;97.69;76766.56;5016292;28;20030;-86
2023/05/01 04:19:53;;;;;;;5.68;3.08;;;;;;;-148.88;97.88;76768.59;5015672;28;20022;-86
2023/05/01 04:22:19;;;;;;;8.60;3.53;;;;;;;-148.88;97.58;76766.56;4997844;28;20069;-86
2023/05/01 04:24:54;;;;;;;7.38;3.65;;;;;;;-148.88;97.19;76768.59;4998188;28;20022;-86
2023/05/01 04:27:20;;;;;;;7.10;3.38;;;;;;;-148.88;97.00;76768.59;4998062;28;20116;-86
2023/05/01 04:29:54;;;;;;;7.47;3.13;;;;;;;-148.88;96.63;76762.50;4998166;28;20072;-86
2023/05/01 04:32:25;;;;;;;7.50;3.53;;;;;;;-148.88;96.74;76758.41;4998834;28;20392;-85
2023/05/01 04:34:50;;;;;;;11.57;3.45;;;;;;;-148.88;96.69;76748.25;4998813;28;20501;-86
2023/05/01 04:37:17;;;;;;;7.97;3.58;;;;;;;-148.88;96.43;76752.31;5001580;28;20033;-85
2023/05/01 04:39:42;;;;;;;9.30;3.22;;;;;;;-148.88;95.98;76748.25;5002605;28;20022;-86
2023/05/01 04:42:08;;;;;;;12.02;3.83;;;;;;;-148.88;96.14;76740.13;4999417;28;20022;-86
2023/05/01 04:44:36;;;;;;;7.93;3.50;;;;;;;-148.88;95.84;76732.00;4997769;28;20026;-85
2023/05/01 04:47:12;;;;;;;7.43;3.17;;;;;;;-148.88;95.39;76732.00;4999095;28;20133;-85
2023/05/01 04:49:43;;;;;;;7.47;3.10;;;;;;;-148.88;95.07;76715.75;5000605;28;20037;-86
2023/05/01 04:52:08;;;;;;;10.90;3.30;;;;;;;-148.88;94.38;76707.63;5000232;28;20028;-86
2023/05/01 04:54:34;;;;;;;6.65;2.83;;;;;;;-148.88;94.45;76701.53;4998106;28;20108;-86
2023/05/01 04:57:08;;;;;;;6.82;3.03;;;;;;;-148.88;94.54;76697.47;4997914;28;20025;-86
2023/05/01 04:59:33;;;;;;;9.57;3.33;;;;;;;-148.88;94.02;76683.25;4999753;28;20056;-86
2023/05/01 05:02:01;;;;;;;7.20;3.25;;;;;;;-148.88;93.52;76691.38;4997598;28;20038;-86
2023/05/01 05:04:27;;;;;;;9.50;5.47;;;;;;;-148.88;93.60;76673.09;5015713;28;20369;-86
2023/05/01 05:06:55;;;;;;;7.65;3.22;;;;;;;-148.88;92.81;76675.13;4998554;28;20080;-85
2023/05/01 05:09:35;;;;;;;7.55;3.42;;;;;;;-148.88;93.02;76662.94;4998914;28;20022;-85
2023/05/01 05:12:02;;;;;;;10.00;3.42;;;;;;;-148.88;93.48;76652.78;5015470;28;20029;-85
2023/05/01 05:14:27;;;;;;;8.65;2.80;;;;;;;-148.88;92.00;76650.75;4998779;28;20026;-85
2023/05/01 05:16:53;;;;;;;11.82;4.22;;;;;;;-148.88;91.89;76640.59;5016101;28;20079;-85
2023/05/01 05:19:18;;;;;;;8.77;3.63;;;;;;;-148.88;92.48;76624.34;5015243;28;20025;-84
2023/05/01 05:21:44;;;;;;;9.80;3.40;;;;;;;-148.88;93.13;76616.22;4997632;28;20476;-85
2023/05/01 05:24:09;;;;;;;7.47;3.90;;;;;;;-148.88;94.40;76606.06;4998389;28;20129;-85
2023/05/01 05:26:35;;;;;;;9.18;3.30;;;;;;;-148.88;93.00;76597.91;4998390;28;20022;-85
2023/05/01 05:29:00;;;;;;;9.13;2.92;;;;;;;-148.88;92.55;76589.78;4997729;28;20512;-86
2023/05/01 05:31:25;;;;;;;9.20;3.92;;;;;;;-148.88;92.75;76577.59;4997286;28;20022;-85
2023/05/01 05:33:51;;;;;;;10.18;5.50;;;;;;;-148.88;91.70;76557.28;4998715;28;20034;-85
2023/05/01 05:36:27;;;;;;;4.85;2.65;;;;;;;-148.88;91.26;76545.09;4998526;28;20451;-85
2023/05/01 05:38:56;;;;;;;6.05;3.13;;;;;;;-148.88;90.68;76528.84;5014707;28;20057;-85
2023/05/01 05:41:21;;;;;;;12.23;3.55;;;;;;;-148.88;90.31;76516.66;4997049;28;20026;-85
2023/05/01 05:43:59;;;;;;;8.85;3.22;;;;;;;-148.88;90.28;76510.56;4997404;28;20116;-85
2023/05/01 05:46:30;;;;;;;8.10;3.35;;;;;;;-148.88;90.19;76498.38;4996857;28;20038;-85
2023/05/01 05:48:55;;;;;;;7.22;3.47;;;;;;;-148.88;90.47;76494.31;4996387;28;20048;-85
2023/05/01 05:51:21;;;;;;;7.40;3.70;;;;;;;-148.88;91.32;76484.16;4996288;28;20557;-85
2023/05/01 05:53:46;;;;;;;9.27;3.58;;;;;;;-148.88;90.39;76471.97;4996976;28;20034;-85
2023/05/01 05:56:17;;;;;;;8.18;3.10;;;;;;;-148.88;90.80;76459.78;4996256;28;20026;-84
2023/05/01 05:59:05;;;;;;;9.57;4.20;;;;;;;-148.88;92.50;76451.66;5013899;28;20038;-85
2023/05/01 06:01:31;;;;;;;9.63;5.75;;;;;;;-148.88;92.35;76439.47;4982571;28;20065;-87
2023/05/01 06:04:05;;;;;;;9.48;3.55;;;;;;;-148.88;92.98;76435.41;5014984;28;20352;-86
2023/05/01 06:06:37;;;;;;;5.38;2.97;;;;;;;-148.88;93.40;76419.16;4996637;28;20038;-86
2023/05/01 06:09:03;;;;;;;6.43;3.42;;;;;;;-148.88;92.07;76411.00;4996862;28;20037;-86
2023/05/01 06:11:28;;;;;;;12.07;3.72;;;;;;;-148.88;91.06;76406.94;5014430;28;20026;-86
2023/05/01 06:13:54;;;;;;;6.30;2.95;;;;;;;-148.88;86.93;76394.75;4997615;28;20461;-85
2023/05/01 06:16:22;;;;;;;7.10;2.88;;;;;;;-148.88;85.83;76384.59;5014267;28;20026;-85
2023/05/01 06:18:50;;;;;;;6.63;2.97;;;;;;;-148.88;88.25;76362.25;4997006;28;20022;-86
2023/05/01 06:21:15;;;;;;;6.55;3.00;;;;;;;-148.88;88.10;76348.03;4996452;28;20392;-86
2023/05/01 06:23:49;;;;;;;10.27;3.42;;;;;;;-148.88;84.71;76323.66;5014144;28;20026;-86
2023/05/01 06:26:15;;;;;;;7.45;4.47;;;;;;;-148.88;83.45;76307.41;4996339;28;20049;-85
2023/05/01 06:28:40;;;;;;;10.25;3.05;;;;;;;-148.88;82.04;76289.13;5014734;28;20496;-85
2023/05/01 06:31:14;;;;;;;8.65;2.72;;;;;;;-148.88;79.04;76272.88;5000555;28;20381;-85
2023/05/01 06:33:40;;;;;;;9.07;4.53;;;;;;;-148.88;78.05;76264.75;5000336;28;20033;-85
2023/05/01 06:36:05;;;;;;;10.52;2.75;;;;;;;-148.88;76.73;76244.44;4999881;28;20318;-85
2023/05/01 06:38:31;;;;;;;8.10;2.60;;;;;;;-148.88;76.09;76224.13;4999682;28;20029;-85
2023/05/01 06:40:57;;;;;;;7.10;2.72;;;;;;;-148.88;74.59;76205.84;4999341;28;20377;-86
2023/05/01 06:43:29;;;;;;;7.18;3.92;;;;;;;-148.88;74.65;76197.72;4999711;28;20083;-85
2023/05/01 06:46:03;;;;;;;7.65;3.08;;;;;;;-148.88;77.25;76185.53;4997273;28;20389;-86
2023/05/01 06:48:32;;;;;;;;;;;;;;;-148.88;75.86;76169.28;5000468;28;20481;-84
2023/05/01 06:50:57;;;;;;;6.63;2.60;;;;;;;-148.88;72.70;76171.31;5024564;28;20299;-86
2023/05/01 06:53:25;;;;;;;8.30;4.25;;;;;;;-148.88;73.73;76159.13;5027534;28;20037;-87
2023/05/01 06:55:57;;;;;;;6.25;2.80;;;;;;;-148.88;73.50;76148.97;5000573;28;20120;-86
2023/05/01 06:58:22;;;;;;;8.35;4.20;;;;;;;-148.88;73.73;76138.81;5000103;28;20033;-85
2023/05/01 07:00:47;;;;;;;5.95;2.40;;;;;;;-148.88;72.08;76138.81;4999858;28;20030;-85
2023/05/01 07:03:26;;;;;;;8.60;2.83;;;;;;;-148.88;72.30;76128.66;4999420;28;20032;-86
2023/05/01 07:05:55;;;;;;;7.95;4.45;;;;;;;-148.88;71.73;76124.56;4999773;28;20041;-86
2023/05/01 07:08:27;;;;;;;7.18;4.35;;;;;;;-148.88;73.24;76110.34;4998937;28;20045;-85
2023/05/01 07:10:52;;;;;;;6.43;4.15;;;;;;;-148.88;73.34;76098.16;4999846;28;20388;-87
2023/05/01 07:13:23;;;;;;;7.68;3.83;;;;;;;-148.88;73.40;76069.72;4999771;28;20022;-87
2023/05/01 07:15:54;;;;;;;6.57;3.92;;;;;;;-148.88;73.55;76061.59;5016893;28;20033;-86
2023/05/01 07:18:25;;;;;;;7.03;4.10;;;;;;;-148.88;73.96;76051.44;5016689;28;20044;-86
2023/05/01 07:20:53;;;;;;;7.55;3.00;;;;;;;-148.88;69.96;76041.28;5016520;28;20025;-87
2023/05/01 07:23:19;;;;;;;8.85;4.10;;;;;;;-148.88;68.97;76029.09;4999623;28;20033;-86
2023/05/01 07:25:47;;;;;;;6.03;4.00;;;;;;;-148.88;69.67;76012.84;4999046;28;20037;-87
2023/05/01 07:28:29;;;;;;;;;;;;;;;;;;;;;
2023/05/01 07:30:57;;;;;;;8.00;4.05;;;;;;;-148.88;68.27;75976.28;5016605;28;20024;-85
2023/05/01 07:33:43;;;;;;;8.23;4.15;;;;;;;-148.88;68.16;75964.09;5016292;28;20022;-85
2023/05/01 07:36:08;;;;;;;10.05;4.60;;;;;;;-148.88;68.82;75958.00;5016570;28;20064;-85
2023/05/01 07:38:40;;;;;;;5.75;3.95;;;;;;;-148.88;66.77;75964.09;4998555;28;20017;-84
2023/05/01 07:41:52;;;;;;;10.25;4.07;;;;;;;-148.88;67.33;75929.56;5015461;28;20033;-86
2023/05/01 07:44:23;;;;;;;5.82;3.92;;;;;;;-148.88;69.45;75895.03;4936991;29;20039;-85
2023/05/01 07:46:51;;;;;;;8.38;3.72;;;;;;;-148.88;65.04;75880.81;4936192;29;20035;-87
2023/05/01 07:49:51;;;;;;;7.78;4.20;;;;;;;-148.88;65.49;75886.91;5012932;28;20488;-86
2023/05/01 07:52:30;;;;;;;8.43;4.10;;;;;;;-148.88;66.88;75858.47;5016319;28;20026;-84
2023/05/01 07:54:55;;;;;;;9.50;3.90;;;;;;;-148.88;68.17;75825.97;4998435;28;20076;-86
2023/05/01 07:57:27;;;;;;;7.72;3.92;;;;;;;-148.88;66.09;75825.97;5015819;28;20029;-85
2023/05/01 07:59:56;;;;;;;7.30;4.25;;;;;;;-148.88;64.88;75830.03;5015572;28;20022;-85
2023/05/01 08:02:53;;;;;;;7.25;3.78;;;;;;;-148.88;67.26;75809.72;4998677;28;20145;-87
2023/05/01 08:06:10;;;;;;;6.20;4.05;;;;;;;-148.88;66.18;75797.53;5015924;28;20038;-84
2023/05/01 08:08:36;;;;;;;6.25;3.88;;;;;;;-148.88;64.76;75781.28;4994611;28;20037;-84
2023/05/01 08:11:32;;;;;;;6.55;3.88;;;;;;;-148.88;66.31;75754.88;4991512;28;20507;-86
2023/05/01 08:14:01;;;;;;;7.60;4.03;;;;;;;-148.88;69.07;75728.47;4989477;28;20084;-85
2023/05/01 08:16:29;;;;;;;5.53;3.55;;;;;;;-148.88;66.21;75702.06;4998591;28;20084;-85
2023/05/01 08:18:57;;;;;;;6.07;3.88;;;;;;;-148.88;63.89;75695.97;4999184;28;20022;-86
2023/05/01 08:21:25;;;;;;;7.20;3.95;;;;;;;-148.88;65.78;75675.66;4999206;28;20357;-85
2023/05/01 08:24:08;;;;;;;8.80;3.97;;;;;;;-148.88;64.13;75683.78;4999604;28;20026;-84
2023/05/01 08:26:50;;;;;;;;;;;;;;;;;;;;;
2023/05/01 08:29:50;;;;;;;5.85;3.72;;;;;;;-148.88;63.99;75647.22;5015208;28;20446;-85
2023/05/01 08:33:14;;;;;;;;;;;;;;;;;;;;;
2023/05/01 08:38:48;;;;;;;6.05;3.55;;;;;;;-148.88;62.42;75598.47;4936498;29;20095;-84
2023/05/01 08:41:52;;;;;;;7.50;3.53;;;;;;;-148.88;65.14;75555.84;4936857;29;20036;-83
2023/05/01 08:44:31;;;;;;;5.30;3.10;;;;;;;-148.88;62.00;75551.78;4934924;29;20039;-85
2023/05/01 08:47:21;;;;;;;8.32;3.88;;;;;;;-148.88;60.89;75543.66;4920742;29;20047;-85
2023/05/01 08:50:09;;;;;;;8.15;4.30;;;;;;;-148.88;61.17;75545.69;4920946;29;20504;-85
2023/05/01 08:52:51;;;;;;;6.00;3.67;;;;;;;-148.88;61.26;75525.38;4920567;29;20047;-85
2023/05/01 08:57:50;;;;;;;7.40;4.22;;;;;;;-148.88;62.13;75488.81;5021333;22;20050;-77
2023/05/01 09:00:20;;;;;;;6.10;3.88;;;;;;;-148.88;60.66;75476.63;5013535;28;20037;-77
2023/05/01 09:02:47;;;;;;;8.10;3.47;;;;;;;-148.88;61.00;75468.50;4995838;28;20511;-76
2023/05/01 09:05:17;;;;;;;10.10;3.90;;;;;;;-148.88;62.24;75444.13;4995832;28;20128;-76
2023/05/01 09:07:44;;;;;;;6.88;3.85;;;;;;;-148.88;63.89;75407.56;5013690;28;20018;-76
2023/05/01 09:10:14;;;;;;;6.38;3.90;;;;;;;-148.88;62.16;75385.22;4995751;28;20040;-76
2023/05/01 09:12:43;;;;;;;8.35;4.18;;;;;;;-148.88;61.39;75356.78;4995614;28;20041;-76
2023/05/01 09:15:09;;;;;;;6.82;3.70;;;;;;;-148.88;61.93;75334.44;4995477;28;20022;-76
2023/05/01 09:17:35;;;;;;;8.00;3.90;;;;;;;-148.88;58.18;75316.16;5014805;28;20033;-77
2023/05/01 09:20:04;;;;;;;5.85;3.60;;;;;;;-148.88;57.78;75308.03;5013323;28;20037;-77
2023/05/01 09:22:32;;;;;;;6.30;3.55;;;;;;;-148.88;57.09;75310.06;4995558;28;20026;-77
2023/05/01 09:24:58;;;;;;;6.60;3.80;;;;;;;-148.88;56.84;75285.69;5013300;28;20105;-78
2023/05/01 09:27:25;;;;;;;5.65;3.70;;;;;;;-148.88;56.33;75271.50;4996878;28;20034;-77
2023/05/01 09:29:50;;;;;;;6.30;3.60;;;;;;;-148.88;55.76;75230.88;5013313;28;20034;-77
2023/05/01 09:32:19;;;;;;;5.97;3.10;;;;;;;-148.88;57.92;75222.75;5013149;28;20029;-77
2023/05/01 09:34:45;;;;;;;6.18;2.97;;;;;;;-148.88;59.02;75176.03;5013063;28;20022;-77
2023/05/01 09:37:32;;;;;;;4.60;3.00;;;;;;;-148.88;54.96;75155.72;5013250;28;20021;-76
2023/05/01 09:40:08;;;;;;;4.00;3.25;;;;;;;-148.88;53.37;75204.47;5012882;28;20037;-77
2023/05/01 09:42:50;;;;;;;4.75;3.10;;;;;;;-148.88;55.97;75139.47;5013508;28;20017;-76
2023/05/01 09:45:17;;;;;;;4.75;2.97;;;;;;;-148.88;53.00;75127.28;4995605;28;20450;-76
2023/05/01 09:47:43;;;;;;;4.82;2.80;;;;;;;-148.88;50.38;75151.66;4995973;28;20022;-77
2023/05/01 09:50:10;;;;;;;7.15;2.30;;;;;;;-148.88;47.77;75123.22;5015904;28;20032;-76
2023/05/01 09:52:35;;;;;;;5.45;2.65;;;;;;;-148.88;47.25;75104.94;4997675;28;20483;-77
2023/05/01 09:55:15;;;;;;;6.55;2.20;;;;;;;-148.88;46.94;75115.09;5013566;28;20394;-77
2023/05/01 09:57:41;;;;;;;4.47;2.28;;;;;;;-148.88;48.24;75078.56;5017522;28;20029;-77
2023/05/01 10:00:08;;;;;;;5.47;2.50;;;;;;;-148.88;47.02;75033.88;5020830;28;20049;-80
2023/05/01 10:02:34;;;;;;;5.57;2.45;;;;;;;-148.88;46.61;75019.66;5016002;28;20072;-77
2023/05/01 10:05:00;;;;;;;4.55;2.40;;;;;;;-148.88;47.13;75001.38;5016960;28;20085;-77
2023/05/01 10:07:26;;;;;;;5.40;2.33;;;;;;;-148.88;49.11;74950.59;5017632;28;20137;-77
2023/05/01 10:09:52;;;;;;;4.47;2.30;;;;;;;-148.88;49.26;74936.41;5000325;28;20056;-78
2023/05/01 10:12:26;;;;;;;3.58;2.10;;;;;;;-148.88;52.20;74987.16;5018671;28;20032;-78
2023/05/01 10:14:55;;;;;;;3.28;1.85;;;;;;;-148.88;47.63;74968.88;5019094;28;20511;-78
2023/05/01 10:17:21;;;;;;;4.40;2.10;;;;;;;-148.88;55.18;74974.97;5018988;28;20039;-77
2023/05/01 10:19:47;;;;;;;6.00;2.50;;;;;;;-148.88;51.25;74932.34;5016999;28;20337;-77
2023/05/01 10:22:13;;;;;;;4.72;2.28;;;;;;;-148.88;44.96;74867.34;5016695;28;20383;-77
2023/05/01 10:24:39;;;;;;;3.80;2.15;;;;;;;-148.88;42.82;74903.91;5016361;28;20030;-77
2023/05/01 10:27:07;;;;;;;5.82;2.10;;;;;;;-148.88;41.83;74883.59;5016470;28;20401;-77
2023/05/01 10:29:38;;;;;;;3.42;1.58;;;;;;;-148.88;45.38;74816.56;5016830;28;20104;-77
2023/05/01 10:32:08;;;;;;;3.03;1.52;;;;;;;-148.88;41.14;74806.44;5016713;28;20018;-78
2023/05/01 10:34:39;;;;;;;3.05;1.13;;;;;;;-148.88;39.62;74773.94;4998707;28;20049;-77
2023/05/01 10:37:11;;;;;;;4.97;1.42;;;;;;;-148.88;40.55;74802.38;4999097;28;20484;-77
2023/05/01 10:39:37;;;;;;;2.30;1.10;;;;;;;-148.88;38.76;74761.75;5016904;28;20029;-77
2023/05/01 10:42:04;;;;;;;1.52;0.85;;;;;;;-148.88;36.54;74745.50;5018804;28;20634;-77
2023/05/01 10:44:29;;;;;;;4.68;1.00;;;;;;;-148.88;37.82;74688.66;5020869;28;20533;-77
2023/05/01 10:46:55;;;;;;;2.15;1.08;;;;;;;-148.88;36.89;74688.66;5016963;28;20034;-77
2023/05/01 10:49:20;;;;;;;3.05;1.30;;;;;;;-148.88;38.92;74713.00;4998621;28;20507;-77
2023/05/01 10:51:59;;;;;;;4.22;1.40;;;;;;;-148.88;38.38;74721.13;5015890;28;20392;-76
2023/05/01 10:54:29;;;;;;;3.42;1.40;;;;;;;-148.88;40.58;74700.84;5016484;28;20033;-77
2023/05/01 10:56:57;;;;;;;2.90;1.45;;;;;;;-148.88;38.56;74666.31;4998116;28;20030;-77
2023/05/01 10:59:23;;;;;;;1.60;0.98;;;;;;;-148.88;38.97;74688.66;5015738;28;20029;-77
2023/05/01 11:01:50;;;;;;;2.35;1.20;;;;;;;-148.88;39.25;74652.09;4998064;28;20026;-77
2023/05/01 11:04:21;;;;;;;2.60;1.10;;;;;;;-148.88;37.25;74704.88;5015799;28;20026;-76
2023/05/01 11:07:03;;;;;;;3.65;1.15;;;;;;;-148.88;37.59;74700.84;5016901;28;20022;-78
2023/05/01 11:09:36;;;;;;;1.52;0.95;;;;;;;-148.88;36.83;74690.69;5000002;28;20403;-77
2023/05/01 11:12:02;;;;;;;1.90;1.05;;;;;;;-148.88;38.02;74700.84;5016717;28;20044;-77
2023/05/01 11:15:01;;;;;;;2.78;1.10;;;;;;;-148.88;39.53;74804.41;5015543;28;20057;-77
2023/05/01 11:17:45;;;;;;;1.83;1.00;;;;;;;-148.88;39.63;74838.91;5016169;28;20053;-77
2023/05/01 11:20:32;;;;;;;2.85;1.25;;;;;;;-148.88;38.57;74749.56;5015858;28;20105;-77
2023/05/01 11:22:57;;;;;;;2.28;1.10;;;;;;;-148.88;40.52;74674.44;5016673;28;20030;-79
2023/05/01 11:25:32;;;;;;;2.38;1.10;;;;;;;-148.88;38.02;74692.72;5016219;28;20377;-77
2023/05/01 11:28:00;;;;;;;1.98;1.13;;;;;;;-148.88;38.87;74692.72;4998125;28;20049;-77
2023/05/01 11:30:35;;;;;;;2.20;1.05;;;;;;;-148.88;38.17;74678.50;4997973;28;20041;-76
2023/05/01 11:33:00;;;;;;;2.78;1.10;;;;;;;-148.88;38.48;74684.59;5015693;28;20393;-76
2023/05/01 11:35:29;;;;;;;1.70;1.00;;;;;;;-148.88;38.94;74684.59;5015960;28;20060;-77
2023/05/01 11:37:54;;;;;;;2.45;1.40;;;;;;;-148.88;40.95;74672.41;4998110;28;20041;-77
2023/05/01 11:40:24;;;;;;;2.17;1.00;;;;;;;-148.88;40.71;74680.53;5015708;28;20484;-77